sensor_id;sensor_type;location;lat;lon;timestamp;temperature;humidity
27306;DHT22;14792;50.886;6.468;2023-05-10T00:00:20;13.30;99.90
27306;DHT22;14792;50.886;6.468;2023-05-10T00:03:22;13.20;99.90
27306;DHT22;14792;50.886;6.468;2023-05-10T00:06:23;13.10;99.90
27306;DHT22;14792;50.886;6.468;2023-05-10T00:09:25;13.20;99.90
27306;DHT22;14792;50.886;6.468;2023-05-10T00:12:26;13.20;99.90
27306;DHT22;14792;50.886;6.468;2023-05-10T00:15:28;13.30;99.90
27306;DHT22;14792;50.886;6.468;2023-05-10T00:18:30;13.20;99.90
27306;DHT22;14792;50.886;6.468;2023-05-10T00:21:31;13.20;99.90
27306;DHT22;14792;50.886;6.468;2023-05-10T00:24:33;13.20;99.90
27306;DHT22;14792;50.886;6.468;2023-05-10T00:27:35;13.30;99.90
27306;DHT22;14792;50.886;6.468;2023-05-10T00:30:37;13.20;99.90
27306;DHT22;14792;50.886;6.468;2023-05-10T00:33:39;13.30;99.90
27306;DHT22;14792;50.886;6.468;2023-05-10T00:36:40;13.20;99.90
27306;DHT22;14792;50.886;6.468;2023-05-10T00:39:42;13.20;99.90
27306;DHT22;14792;50.886;6.468;2023-05-10T00:42:43;13.20;99.90
27306;DHT22;14792;50.886;6.468;2023-05-10T00:45:45;13.10;99.90
27306;DHT22;14792;50.886;6.468;2023-05-10T00:48:47;13.10;99.90
27306;DHT22;14792;50.886;6.468;2023-05-10T00:51:49;13.10;99.90
27306;DHT22;14792;50.886;6.468;2023-05-10T00:54:51;13.10;99.90
27306;DHT22;14792;50.886;6.468;2023-05-10T00:57:52;13.10;99.90
27306;DHT22;14792;50.886;6.468;2023-05-10T01:00:54;13.20;99.90
27306;DHT22;14792;50.886;6.468;2023-05-10T01:03:55;13.10;99.90
27306;DHT22;14792;50.886;6.468;2023-05-10T01:06:56;13.10;99.90
27306;DHT22;14792;50.886;6.468;2023-05-10T01:09:58;13.10;99.90
27306;DHT22;14792;50.886;6.468;2023-05-10T01:12:59;13.10;99.90
27306;DHT22;14792;50.886;6.468;2023-05-10T01:16:01;13.20;99.90
27306;DHT22;14792;50.886;6.468;2023-05-10T01:19:06;13.10;99.90
27306;DHT22;14792;50.886;6.468;2023-05-10T01:35:40;13.10;99.90
27306;DHT22;14792;50.886;6.468;2023-05-10T01:38:53;13.10;99.90
27306;DHT22;14792;50.886;6.468;2023-05-10T01:41:51;13.00;99.90
27306;DHT22;14792;50.886;6.468;2023-05-10T01:45:13;13.10;99.90
27306;DHT22;14792;50.886;6.468;2023-05-10T01:48:11;13.10;99.90
27306;DHT22;14792;50.886;6.468;2023-05-10T01:51:13;13.10;99.90
27306;DHT22;14792;50.886;6.468;2023-05-10T01:54:14;13.10;99.90
27306;DHT22;14792;50.886;6.468;2023-05-10T01:57:16;13.10;99.90
27306;DHT22;14792;50.886;6.468;2023-05-10T02:00:18;13.00;99.90
27306;DHT22;14792;50.886;6.468;2023-05-10T02:03:23;13.00;99.90
27306;DHT22;14792;50.886;6.468;2023-05-10T02:06:21;13.00;99.90
27306;DHT22;14792;50.886;6.468;2023-05-10T02:09:22;13.00;99.90
27306;DHT22;14792;50.886;6.468;2023-05-10T02:12:24;13.00;99.90
27306;DHT22;14792;50.886;6.468;2023-05-10T02:15:26;13.10;99.90
27306;DHT22;14792;50.886;6.468;2023-05-10T02:18:27;13.00;99.90
27306;DHT22;14792;50.886;6.468;2023-05-10T02:21:29;13.00;99.90
27306;DHT22;14792;50.886;6.468;2023-05-10T02:24:31;13.00;99.90
27306;DHT22;14792;50.886;6.468;2023-05-10T02:27:32;13.00;99.90
27306;DHT22;14792;50.886;6.468;2023-05-10T02:30:34;13.00;99.90
27306;DHT22;14792;50.886;6.468;2023-05-10T02:33:37;13.00;99.90
27306;DHT22;14792;50.886;6.468;2023-05-10T02:36:37;13.00;99.90
27306;DHT22;14792;50.886;6.468;2023-05-10T02:39:39;13.00;99.90
27306;DHT22;14792;50.886;6.468;2023-05-10T02:42:41;13.00;99.90
27306;DHT22;14792;50.886;6.468;2023-05-10T02:45:43;13.10;99.90
27306;DHT22;14792;50.886;6.468;2023-05-10T02:48:44;13.00;99.90
27306;DHT22;14792;50.886;6.468;2023-05-10T02:51:47;13.00;99.90
27306;DHT22;14792;50.886;6.468;2023-05-10T02:54:48;13.10;99.90
27306;DHT22;14792;50.886;6.468;2023-05-10T02:57:51;13.10;99.90
27306;DHT22;14792;50.886;6.468;2023-05-10T03:00:50;13.10;99.90
27306;DHT22;14792;50.886;6.468;2023-05-10T03:03:52;13.10;99.90
27306;DHT22;14792;50.886;6.468;2023-05-10T03:06:53;13.10;99.90
27306;DHT22;14792;50.886;6.468;2023-05-10T03:09:55;13.10;99.90
27306;DHT22;14792;50.886;6.468;2023-05-10T03:13:16;13.00;99.90
27306;DHT22;14792;50.886;6.468;2023-05-10T03:16:16;13.10;99.90
27306;DHT22;14792;50.886;6.468;2023-05-10T03:19:22;13.10;99.90
27306;DHT22;14792;50.886;6.468;2023-05-10T03:22:36;13.00;99.90
27306;DHT22;14792;50.886;6.468;2023-05-10T03:25:33;13.00;99.90
27306;DHT22;14792;50.886;6.468;2023-05-10T03:28:35;13.00;99.90
27306;DHT22;14792;50.886;6.468;2023-05-10T03:31:36;12.90;99.90
27306;DHT22;14792;50.886;6.468;2023-05-10T03:34:41;12.90;99.90
27306;DHT22;14792;50.886;6.468;2023-05-10T03:37:39;12.90;99.90
27306;DHT22;14792;50.886;6.468;2023-05-10T03:40:41;12.90;99.90
27306;DHT22;14792;50.886;6.468;2023-05-10T03:43:43;12.90;99.90
27306;DHT22;14792;50.886;6.468;2023-05-10T03:46:44;12.90;99.90
27306;DHT22;14792;50.886;6.468;2023-05-10T03:49:46;12.80;99.90
27306;DHT22;14792;50.886;6.468;2023-05-10T03:52:47;12.80;99.90
27306;DHT22;14792;50.886;6.468;2023-05-10T03:55:49;12.80;99.90
27306;DHT22;14792;50.886;6.468;2023-05-10T03:58:51;12.80;99.90
27306;DHT22;14792;50.886;6.468;2023-05-10T04:01:52;12.80;99.90
27306;DHT22;14792;50.886;6.468;2023-05-10T04:04:54;12.70;99.90
27306;DHT22;14792;50.886;6.468;2023-05-10T04:07:55;12.70;99.90
27306;DHT22;14792;50.886;6.468;2023-05-10T04:11:10;12.70;99.90
27306;DHT22;14792;50.886;6.468;2023-05-10T04:14:11;12.70;99.90
27306;DHT22;14792;50.886;6.468;2023-05-10T04:17:13;12.60;99.90
27306;DHT22;14792;50.886;6.468;2023-05-10T04:20:14;12.70;99.90
27306;DHT22;14792;50.886;6.468;2023-05-10T04:23:16;12.60;99.90
27306;DHT22;14792;50.886;6.468;2023-05-10T04:26:18;12.60;99.90
27306;DHT22;14792;50.886;6.468;2023-05-10T04:29:19;12.60;99.90
27306;DHT22;14792;50.886;6.468;2023-05-10T04:32:21;12.60;99.90
27306;DHT22;14792;50.886;6.468;2023-05-10T04:35:23;12.60;99.90
27306;DHT22;14792;50.886;6.468;2023-05-10T04:38:24;12.60;99.90
27306;DHT22;14792;50.886;6.468;2023-05-10T04:41:26;12.60;99.90
27306;DHT22;14792;50.886;6.468;2023-05-10T04:44:28;12.60;99.90
27306;DHT22;14792;50.886;6.468;2023-05-10T04:47:29;12.60;99.90
27306;DHT22;14792;50.886;6.468;2023-05-10T04:50:31;12.60;99.90
27306;DHT22;14792;50.886;6.468;2023-05-10T04:53:33;12.60;99.90
27306;DHT22;14792;50.886;6.468;2023-05-10T04:56:34;12.60;99.90
27306;DHT22;14792;50.886;6.468;2023-05-10T04:59:36;12.70;99.90
27306;DHT22;14792;50.886;6.468;2023-05-10T05:02:38;12.70;99.90
27306;DHT22;14792;50.886;6.468;2023-05-10T05:05:39;12.70;99.90
27306;DHT22;14792;50.886;6.468;2023-05-10T05:08:41;12.70;99.90
27306;DHT22;14792;50.886;6.468;2023-05-10T05:11:42;12.80;99.90
27306;DHT22;14792;50.886;6.468;2023-05-10T05:14:44;12.80;99.90
27306;DHT22;14792;50.886;6.468;2023-05-10T05:17:46;12.80;99.90
27306;DHT22;14792;50.886;6.468;2023-05-10T05:20:47;12.80;99.90
27306;DHT22;14792;50.886;6.468;2023-05-10T05:23:49;12.80;99.90
27306;DHT22;14792;50.886;6.468;2023-05-10T05:26:51;12.80;99.90
27306;DHT22;14792;50.886;6.468;2023-05-10T05:29:56;12.90;99.90
27306;DHT22;14792;50.886;6.468;2023-05-10T05:32:58;12.90;99.90
27306;DHT22;14792;50.886;6.468;2023-05-10T05:36:03;12.90;99.90
27306;DHT22;14792;50.886;6.468;2023-05-10T05:39:04;12.90;99.90
27306;DHT22;14792;50.886;6.468;2023-05-10T05:42:06;12.90;99.90
27306;DHT22;14792;50.886;6.468;2023-05-10T05:45:08;12.90;99.90
27306;DHT22;14792;50.886;6.468;2023-05-10T05:48:09;13.00;99.90
27306;DHT22;14792;50.886;6.468;2023-05-10T05:51:11;12.90;99.90
27306;DHT22;14792;50.886;6.468;2023-05-10T05:54:13;12.90;99.90
27306;DHT22;14792;50.886;6.468;2023-05-10T05:57:14;12.90;99.90
27306;DHT22;14792;50.886;6.468;2023-05-10T06:00:16;12.90;99.90
27306;DHT22;14792;50.886;6.468;2023-05-10T06:03:18;12.90;99.90
27306;DHT22;14792;50.886;6.468;2023-05-10T06:06:19;12.90;99.90
27306;DHT22;14792;50.886;6.468;2023-05-10T06:09:21;12.90;99.90
27306;DHT22;14792;50.886;6.468;2023-05-10T06:12:22;12.90;99.90
27306;DHT22;14792;50.886;6.468;2023-05-10T06:15:24;13.00;99.90
27306;DHT22;14792;50.886;6.468;2023-05-10T06:18:26;12.90;99.90
27306;DHT22;14792;50.886;6.468;2023-05-10T06:21:27;12.90;99.90
27306;DHT22;14792;50.886;6.468;2023-05-10T06:24:29;13.00;99.90
27306;DHT22;14792;50.886;6.468;2023-05-10T06:27:31;13.00;99.90
27306;DHT22;14792;50.886;6.468;2023-05-10T06:30:32;12.90;99.90
27306;DHT22;14792;50.886;6.468;2023-05-10T06:33:34;13.00;99.90
27306;DHT22;14792;50.886;6.468;2023-05-10T06:36:36;13.00;99.90
27306;DHT22;14792;50.886;6.468;2023-05-10T06:39:37;13.00;99.90
27306;DHT22;14792;50.886;6.468;2023-05-10T06:42:39;13.10;99.90
27306;DHT22;14792;50.886;6.468;2023-05-10T06:45:41;13.20;99.90
27306;DHT22;14792;50.886;6.468;2023-05-10T06:48:42;13.20;99.90
27306;DHT22;14792;50.886;6.468;2023-05-10T06:51:44;13.20;99.90
27306;DHT22;14792;50.886;6.468;2023-05-10T06:54:45;13.20;99.90
27306;DHT22;14792;50.886;6.468;2023-05-10T06:57:47;13.20;99.90
27306;DHT22;14792;50.886;6.468;2023-05-10T07:00:49;13.20;99.90
27306;DHT22;14792;50.886;6.468;2023-05-10T07:03:50;13.20;99.90
27306;DHT22;14792;50.886;6.468;2023-05-10T07:06:52;13.20;99.90
27306;DHT22;14792;50.886;6.468;2023-05-10T07:09:54;13.20;99.90
27306;DHT22;14792;50.886;6.468;2023-05-10T07:12:56;13.10;99.90
27306;DHT22;14792;50.886;6.468;2023-05-10T07:15:58;13.20;99.90
27306;DHT22;14792;50.886;6.468;2023-05-10T07:18:59;13.20;99.90
27306;DHT22;14792;50.886;6.468;2023-05-10T07:22:01;13.20;99.90
27306;DHT22;14792;50.886;6.468;2023-05-10T07:25:02;13.20;99.90
27306;DHT22;14792;50.886;6.468;2023-05-10T07:28:04;13.20;99.90
27306;DHT22;14792;50.886;6.468;2023-05-10T07:31:06;13.20;99.90
27306;DHT22;14792;50.886;6.468;2023-05-10T07:34:07;13.20;99.90
27306;DHT22;14792;50.886;6.468;2023-05-10T07:37:09;13.30;99.90
27306;DHT22;14792;50.886;6.468;2023-05-10T07:40:10;13.40;99.90
27306;DHT22;14792;50.886;6.468;2023-05-10T07:43:12;13.40;99.90
27306;DHT22;14792;50.886;6.468;2023-05-10T07:46:14;13.50;99.90
27306;DHT22;14792;50.886;6.468;2023-05-10T07:49:15;13.60;99.90
27306;DHT22;14792;50.886;6.468;2023-05-10T07:52:17;13.70;99.90
27306;DHT22;14792;50.886;6.468;2023-05-10T07:55:19;13.70;99.90
27306;DHT22;14792;50.886;6.468;2023-05-10T07:58:21;13.70;99.90
27306;DHT22;14792;50.886;6.468;2023-05-10T08:01:22;13.70;99.90
27306;DHT22;14792;50.886;6.468;2023-05-10T08:04:24;13.80;99.90
27306;DHT22;14792;50.886;6.468;2023-05-10T08:07:26;13.80;99.90
27306;DHT22;14792;50.886;6.468;2023-05-10T08:10:28;13.70;99.90
27306;DHT22;14792;50.886;6.468;2023-05-10T08:13:29;13.70;99.90
27306;DHT22;14792;50.886;6.468;2023-05-10T08:16:31;13.70;99.90
27306;DHT22;14792;50.886;6.468;2023-05-10T08:19:32;13.80;99.90
27306;DHT22;14792;50.886;6.468;2023-05-10T08:22:34;13.80;99.90
27306;DHT22;14792;50.886;6.468;2023-05-10T08:25:36;13.70;99.90
27306;DHT22;14792;50.886;6.468;2023-05-10T08:28:38;13.70;99.90
27306;DHT22;14792;50.886;6.468;2023-05-10T08:31:39;13.80;99.90
27306;DHT22;14792;50.886;6.468;2023-05-10T08:34:41;14.00;99.90
27306;DHT22;14792;50.886;6.468;2023-05-10T08:37:42;14.00;99.90
27306;DHT22;14792;50.886;6.468;2023-05-10T08:40:44;14.10;99.90
27306;DHT22;14792;50.886;6.468;2023-05-10T08:43:46;14.30;99.90
27306;DHT22;14792;50.886;6.468;2023-05-10T08:46:47;14.50;99.90
27306;DHT22;14792;50.886;6.468;2023-05-10T08:49:49;14.60;99.90
27306;DHT22;14792;50.886;6.468;2023-05-10T08:52:51;14.30;99.90
27306;DHT22;14792;50.886;6.468;2023-05-10T08:55:52;14.40;99.90
27306;DHT22;14792;50.886;6.468;2023-05-10T08:58:54;14.40;99.90
27306;DHT22;14792;50.886;6.468;2023-05-10T09:01:58;14.50;99.90
27306;DHT22;14792;50.886;6.468;2023-05-10T09:05:00;14.40;99.90
27306;DHT22;14792;50.886;6.468;2023-05-10T09:08:02;14.50;99.90
27306;DHT22;14792;50.886;6.468;2023-05-10T09:11:03;14.50;99.90
27306;DHT22;14792;50.886;6.468;2023-05-10T09:14:05;14.60;99.90
27306;DHT22;14792;50.886;6.468;2023-05-10T09:17:08;14.70;99.90
27306;DHT22;14792;50.886;6.468;2023-05-10T09:20:10;14.70;99.90
27306;DHT22;14792;50.886;6.468;2023-05-10T09:23:12;14.90;99.90
27306;DHT22;14792;50.886;6.468;2023-05-10T09:26:13;14.80;99.90
27306;DHT22;14792;50.886;6.468;2023-05-10T09:29:15;14.60;99.90
27306;DHT22;14792;50.886;6.468;2023-05-10T09:32:17;14.50;99.90
27306;DHT22;14792;50.886;6.468;2023-05-10T09:35:19;14.30;99.90
27306;DHT22;14792;50.886;6.468;2023-05-10T09:38:20;14.20;99.90
27306;DHT22;14792;50.886;6.468;2023-05-10T09:41:22;14.30;99.90
27306;DHT22;14792;50.886;6.468;2023-05-10T09:44:25;14.50;99.90
27306;DHT22;14792;50.886;6.468;2023-05-10T09:47:25;14.70;99.90
27306;DHT22;14792;50.886;6.468;2023-05-10T09:50:27;14.90;99.90
27306;DHT22;14792;50.886;6.468;2023-05-10T09:53:28;15.20;99.90
27306;DHT22;14792;50.886;6.468;2023-05-10T09:56:34;15.10;99.90
27306;DHT22;14792;50.886;6.468;2023-05-10T09:59:41;15.30;99.90
27306;DHT22;14792;50.886;6.468;2023-05-10T10:02:39;15.80;99.90
27306;DHT22;14792;50.886;6.468;2023-05-10T10:05:42;16.00;99.90
27306;DHT22;14792;50.886;6.468;2023-05-10T10:08:43;15.70;99.90
27306;DHT22;14792;50.886;6.468;2023-05-10T10:11:44;15.70;99.90
27306;DHT22;14792;50.886;6.468;2023-05-10T10:14:46;15.80;99.90
27306;DHT22;14792;50.886;6.468;2023-05-10T10:17:48;16.00;99.90
27306;DHT22;14792;50.886;6.468;2023-05-10T10:20:49;15.80;99.90
27306;DHT22;14792;50.886;6.468;2023-05-10T10:23:51;15.60;99.90
27306;DHT22;14792;50.886;6.468;2023-05-10T10:26:53;15.50;99.90
27306;DHT22;14792;50.886;6.468;2023-05-10T10:30:09;15.00;99.90
27306;DHT22;14792;50.886;6.468;2023-05-10T10:36:47;15.10;99.90
27306;DHT22;14792;50.886;6.468;2023-05-10T10:39:47;15.20;99.90
27306;DHT22;14792;50.886;6.468;2023-05-10T10:42:47;15.50;99.90
27306;DHT22;14792;50.886;6.468;2023-05-10T10:46:13;15.60;99.90
27306;DHT22;14792;50.886;6.468;2023-05-10T10:49:14;15.60;99.90
27306;DHT22;14792;50.886;6.468;2023-05-10T10:52:23;15.70;99.90
27306;DHT22;14792;50.886;6.468;2023-05-10T10:55:24;15.60;99.90
27306;DHT22;14792;50.886;6.468;2023-05-10T10:58:29;15.60;99.90
27306;DHT22;14792;50.886;6.468;2023-05-10T11:01:33;15.70;99.90
27306;DHT22;14792;50.886;6.468;2023-05-10T11:04:44;15.80;99.90
27306;DHT22;14792;50.886;6.468;2023-05-10T11:07:52;16.00;99.90
27306;DHT22;14792;50.886;6.468;2023-05-10T11:14:06;15.60;99.90
27306;DHT22;14792;50.886;6.468;2023-05-10T11:17:23;15.60;99.90
27306;DHT22;14792;50.886;6.468;2023-05-10T11:20:27;15.90;99.90
27306;DHT22;14792;50.886;6.468;2023-05-10T11:23:32;16.20;99.90
27306;DHT22;14792;50.886;6.468;2023-05-10T11:26:34;16.30;99.90
27306;DHT22;14792;50.886;6.468;2023-05-10T11:29:35;16.20;99.90
27306;DHT22;14792;50.886;6.468;2023-05-10T11:32:37;16.70;99.90
27306;DHT22;14792;50.886;6.468;2023-05-10T11:35:38;16.60;99.90
27306;DHT22;14792;50.886;6.468;2023-05-10T11:38:40;17.00;99.90
27306;DHT22;14792;50.886;6.468;2023-05-10T11:41:42;17.00;99.90
27306;DHT22;14792;50.886;6.468;2023-05-10T11:44:45;16.90;99.90
27306;DHT22;14792;50.886;6.468;2023-05-10T11:47:47;16.80;99.90
27306;DHT22;14792;50.886;6.468;2023-05-10T11:50:46;16.80;99.90
27306;DHT22;14792;50.886;6.468;2023-05-10T11:53:49;16.70;99.90
27306;DHT22;14792;50.886;6.468;2023-05-10T11:56:50;16.50;99.90
27306;DHT22;14792;50.886;6.468;2023-05-10T11:59:56;16.40;99.90
27306;DHT22;14792;50.886;6.468;2023-05-10T12:02:56;16.70;99.90
27306;DHT22;14792;50.886;6.468;2023-05-10T12:05:58;16.60;99.90
27306;DHT22;14792;50.886;6.468;2023-05-10T12:09:01;16.70;99.90
27306;DHT22;14792;50.886;6.468;2023-05-10T12:12:01;16.60;99.90
27306;DHT22;14792;50.886;6.468;2023-05-10T12:15:03;16.40;99.90
27306;DHT22;14792;50.886;6.468;2023-05-10T12:18:04;16.50;99.90
27306;DHT22;14792;50.886;6.468;2023-05-10T12:21:06;16.50;99.90
27306;DHT22;14792;50.886;6.468;2023-05-10T12:24:08;16.50;99.90
27306;DHT22;14792;50.886;6.468;2023-05-10T12:27:09;16.50;99.90
27306;DHT22;14792;50.886;6.468;2023-05-10T12:30:11;16.40;99.90
27306;DHT22;14792;50.886;6.468;2023-05-10T12:33:13;16.60;99.90
27306;DHT22;14792;50.886;6.468;2023-05-10T12:36:15;16.70;99.90
27306;DHT22;14792;50.886;6.468;2023-05-10T12:39:16;16.60;99.90
27306;DHT22;14792;50.886;6.468;2023-05-10T12:42:17;16.60;99.90
27306;DHT22;14792;50.886;6.468;2023-05-10T12:45:19;16.40;99.90
27306;DHT22;14792;50.886;6.468;2023-05-10T12:48:21;16.20;99.90
27306;DHT22;14792;50.886;6.468;2023-05-10T12:51:22;16.40;99.90
27306;DHT22;14792;50.886;6.468;2023-05-10T12:54:24;16.20;99.90
27306;DHT22;14792;50.886;6.468;2023-05-10T12:57:26;16.30;99.90
27306;DHT22;14792;50.886;6.468;2023-05-10T13:00:27;16.40;99.90
27306;DHT22;14792;50.886;6.468;2023-05-10T13:03:29;16.40;99.90
27306;DHT22;14792;50.886;6.468;2023-05-10T13:06:31;16.40;99.90
27306;DHT22;14792;50.886;6.468;2023-05-10T13:09:32;16.30;99.90
27306;DHT22;14792;50.886;6.468;2023-05-10T13:12:34;16.40;99.90
27306;DHT22;14792;50.886;6.468;2023-05-10T13:15:36;16.50;99.90
27306;DHT22;14792;50.886;6.468;2023-05-10T13:18:40;16.60;99.90
27306;DHT22;14792;50.886;6.468;2023-05-10T13:21:42;16.60;99.90
27306;DHT22;14792;50.886;6.468;2023-05-10T13:24:44;16.40;99.90
27306;DHT22;14792;50.886;6.468;2023-05-10T13:27:49;16.10;99.90
27306;DHT22;14792;50.886;6.468;2023-05-10T13:30:50;16.10;99.90
27306;DHT22;14792;50.886;6.468;2023-05-10T13:33:52;16.30;99.90
27306;DHT22;14792;50.886;6.468;2023-05-10T13:36:53;16.30;99.90
27306;DHT22;14792;50.886;6.468;2023-05-10T13:39:58;16.30;99.90
27306;DHT22;14792;50.886;6.468;2023-05-10T13:43:05;16.30;99.90
27306;DHT22;14792;50.886;6.468;2023-05-10T13:46:04;16.20;99.90
27306;DHT22;14792;50.886;6.468;2023-05-10T13:49:08;16.40;99.90
27306;DHT22;14792;50.886;6.468;2023-05-10T13:52:10;16.40;99.90
27306;DHT22;14792;50.886;6.468;2023-05-10T13:55:12;16.30;99.90
27306;DHT22;14792;50.886;6.468;2023-05-10T13:58:16;16.50;99.90
27306;DHT22;14792;50.886;6.468;2023-05-10T14:01:15;16.60;99.90
27306;DHT22;14792;50.886;6.468;2023-05-10T14:04:19;16.90;99.90
27306;DHT22;14792;50.886;6.468;2023-05-10T14:07:20;17.00;99.90
27306;DHT22;14792;50.886;6.468;2023-05-10T14:10:22;17.20;99.90
27306;DHT22;14792;50.886;6.468;2023-05-10T14:13:30;17.40;99.90
27306;DHT22;14792;50.886;6.468;2023-05-10T14:16:29;17.60;99.90
27306;DHT22;14792;50.886;6.468;2023-05-10T14:19:33;17.70;99.90
27306;DHT22;14792;50.886;6.468;2023-05-10T14:22:32;17.60;99.90
27306;DHT22;14792;50.886;6.468;2023-05-10T14:25:33;17.40;99.90
27306;DHT22;14792;50.886;6.468;2023-05-10T14:28:38;17.60;99.90
27306;DHT22;14792;50.886;6.468;2023-05-10T14:31:40;17.60;99.90
27306;DHT22;14792;50.886;6.468;2023-05-10T14:34:41;17.30;99.90
27306;DHT22;14792;50.886;6.468;2023-05-10T14:37:43;17.50;99.90
27306;DHT22;14792;50.886;6.468;2023-05-10T14:40:44;17.50;99.90
27306;DHT22;14792;50.886;6.468;2023-05-10T14:43:46;17.20;99.90
27306;DHT22;14792;50.886;6.468;2023-05-10T14:46:53;17.00;99.90
27306;DHT22;14792;50.886;6.468;2023-05-10T14:49:55;17.10;99.90
27306;DHT22;14792;50.886;6.468;2023-05-10T14:52:54;17.00;99.90
27306;DHT22;14792;50.886;6.468;2023-05-10T14:55:55;17.00;99.90
27306;DHT22;14792;50.886;6.468;2023-05-10T14:59:00;16.70;99.90
27306;DHT22;14792;50.886;6.468;2023-05-10T15:01:59;16.60;99.90
27306;DHT22;14792;50.886;6.468;2023-05-10T15:05:04;16.50;99.90
27306;DHT22;14792;50.886;6.468;2023-05-10T15:08:05;16.20;99.90
27306;DHT22;14792;50.886;6.468;2023-05-10T15:11:10;16.20;99.90
27306;DHT22;14792;50.886;6.468;2023-05-10T15:14:08;16.10;99.90
27306;DHT22;14792;50.886;6.468;2023-05-10T15:17:10;16.10;99.90
27306;DHT22;14792;50.886;6.468;2023-05-10T15:20:15;16.00;99.90
27306;DHT22;14792;50.886;6.468;2023-05-10T15:23:17;16.10;99.90
27306;DHT22;14792;50.886;6.468;2023-05-10T15:26:21;16.30;99.90
27306;DHT22;14792;50.886;6.468;2023-05-10T15:29:23;16.50;99.90
27306;DHT22;14792;50.886;6.468;2023-05-10T15:32:24;16.70;99.90
27306;DHT22;14792;50.886;6.468;2023-05-10T15:35:29;16.70;99.90
27306;DHT22;14792;50.886;6.468;2023-05-10T15:38:28;16.70;99.90
27306;DHT22;14792;50.886;6.468;2023-05-10T15:41:29;16.70;99.90
27306;DHT22;14792;50.886;6.468;2023-05-10T15:44:34;16.60;99.90
27306;DHT22;14792;50.886;6.468;2023-05-10T15:47:35;16.60;99.90
27306;DHT22;14792;50.886;6.468;2023-05-10T15:50:37;16.40;99.90
27306;DHT22;14792;50.886;6.468;2023-05-10T15:53:41;16.20;99.90
27306;DHT22;14792;50.886;6.468;2023-05-10T15:56:43;16.20;99.90
27306;DHT22;14792;50.886;6.468;2023-05-10T15:59:47;16.20;99.90
27306;DHT22;14792;50.886;6.468;2023-05-10T16:02:50;16.20;99.90
27306;DHT22;14792;50.886;6.468;2023-05-10T16:05:54;16.10;99.90
27306;DHT22;14792;50.886;6.468;2023-05-10T16:08:55;16.00;99.90
27306;DHT22;14792;50.886;6.468;2023-05-10T16:11:53;16.00;99.90
27306;DHT22;14792;50.886;6.468;2023-05-10T16:14:55;15.90;99.90
27306;DHT22;14792;50.886;6.468;2023-05-10T16:18:01;15.70;99.90
27306;DHT22;14792;50.886;6.468;2023-05-10T16:20:58;15.70;99.90
27306;DHT22;14792;50.886;6.468;2023-05-10T16:24:01;15.60;99.90
27306;DHT22;14792;50.886;6.468;2023-05-10T16:27:02;15.60;99.90
27306;DHT22;14792;50.886;6.468;2023-05-10T16:30:03;15.70;99.90
27306;DHT22;14792;50.886;6.468;2023-05-10T16:33:05;15.80;99.90
27306;DHT22;14792;50.886;6.468;2023-05-10T16:36:07;15.80;99.90
27306;DHT22;14792;50.886;6.468;2023-05-10T16:39:10;15.80;99.90
27306;DHT22;14792;50.886;6.468;2023-05-10T16:42:11;16.00;99.90
27306;DHT22;14792;50.886;6.468;2023-05-10T16:45:13;15.80;99.90
27306;DHT22;14792;50.886;6.468;2023-05-10T16:48:15;15.80;99.90
27306;DHT22;14792;50.886;6.468;2023-05-10T16:51:16;15.80;99.90
27306;DHT22;14792;50.886;6.468;2023-05-10T16:54:18;15.80;99.90
27306;DHT22;14792;50.886;6.468;2023-05-10T16:57:20;15.80;99.90
27306;DHT22;14792;50.886;6.468;2023-05-10T17:00:21;15.80;99.90
27306;DHT22;14792;50.886;6.468;2023-05-10T17:03:23;15.80;99.90
27306;DHT22;14792;50.886;6.468;2023-05-10T17:06:25;15.90;99.90
27306;DHT22;14792;50.886;6.468;2023-05-10T17:09:26;15.90;99.90
27306;DHT22;14792;50.886;6.468;2023-05-10T17:12:28;15.80;99.90
27306;DHT22;14792;50.886;6.468;2023-05-10T17:15:29;15.80;99.90
27306;DHT22;14792;50.886;6.468;2023-05-10T17:18:31;15.80;99.90
27306;DHT22;14792;50.886;6.468;2023-05-10T17:21:33;15.80;99.90
27306;DHT22;14792;50.886;6.468;2023-05-10T17:24:35;15.80;99.90
27306;DHT22;14792;50.886;6.468;2023-05-10T17:27:36;15.80;99.90
27306;DHT22;14792;50.886;6.468;2023-05-10T17:30:38;15.70;99.90
27306;DHT22;14792;50.886;6.468;2023-05-10T17:33:40;15.60;99.90
27306;DHT22;14792;50.886;6.468;2023-05-10T17:36:41;15.60;99.90
27306;DHT22;14792;50.886;6.468;2023-05-10T17:39:44;15.60;99.90
27306;DHT22;14792;50.886;6.468;2023-05-10T17:42:46;15.60;99.90
27306;DHT22;14792;50.886;6.468;2023-05-10T17:45:48;15.70;99.90
27306;DHT22;14792;50.886;6.468;2023-05-10T17:48:49;15.80;99.90
27306;DHT22;14792;50.886;6.468;2023-05-10T17:51:50;15.80;99.90
27306;DHT22;14792;50.886;6.468;2023-05-10T17:54:52;15.80;99.90
27306;DHT22;14792;50.886;6.468;2023-05-10T17:57:54;15.70;99.90
27306;DHT22;14792;50.886;6.468;2023-05-10T18:00:55;15.80;99.90
27306;DHT22;14792;50.886;6.468;2023-05-10T18:03:57;15.70;99.90
27306;DHT22;14792;50.886;6.468;2023-05-10T18:06:59;15.60;99.90
27306;DHT22;14792;50.886;6.468;2023-05-10T18:10:03;15.50;99.90
27306;DHT22;14792;50.886;6.468;2023-05-10T18:13:05;15.50;99.90
27306;DHT22;14792;50.886;6.468;2023-05-10T18:16:06;15.50;99.90
27306;DHT22;14792;50.886;6.468;2023-05-10T18:19:10;15.50;99.90
27306;DHT22;14792;50.886;6.468;2023-05-10T18:22:12;15.40;99.90
27306;DHT22;14792;50.886;6.468;2023-05-10T18:25:14;15.50;99.90
27306;DHT22;14792;50.886;6.468;2023-05-10T18:28:15;15.40;99.90
27306;DHT22;14792;50.886;6.468;2023-05-10T18:31:17;15.30;99.90
27306;DHT22;14792;50.886;6.468;2023-05-10T18:34:19;15.30;99.90
27306;DHT22;14792;50.886;6.468;2023-05-10T18:37:20;15.30;99.90
27306;DHT22;14792;50.886;6.468;2023-05-10T18:40:22;15.20;99.90
27306;DHT22;14792;50.886;6.468;2023-05-10T18:43:23;15.20;99.90
27306;DHT22;14792;50.886;6.468;2023-05-10T18:46:25;15.10;99.90
27306;DHT22;14792;50.886;6.468;2023-05-10T18:49:27;15.00;99.90
27306;DHT22;14792;50.886;6.468;2023-05-10T18:52:28;15.00;99.90
27306;DHT22;14792;50.886;6.468;2023-05-10T18:55:30;14.80;99.90
27306;DHT22;14792;50.886;6.468;2023-05-10T18:58:32;14.80;99.90
27306;DHT22;14792;50.886;6.468;2023-05-10T19:01:33;14.80;99.90
27306;DHT22;14792;50.886;6.468;2023-05-10T19:04:35;14.60;99.90
27306;DHT22;14792;50.886;6.468;2023-05-10T19:07:37;14.60;99.90
27306;DHT22;14792;50.886;6.468;2023-05-10T19:10:38;14.50;99.90
27306;DHT22;14792;50.886;6.468;2023-05-10T19:13:40;14.50;99.90
27306;DHT22;14792;50.886;6.468;2023-05-10T19:16:42;14.50;99.90
27306;DHT22;14792;50.886;6.468;2023-05-10T19:19:43;14.50;99.90
27306;DHT22;14792;50.886;6.468;2023-05-10T19:22:45;14.50;99.90
27306;DHT22;14792;50.886;6.468;2023-05-10T19:25:46;14.50;99.90
27306;DHT22;14792;50.886;6.468;2023-05-10T19:28:51;14.40;99.90